Startpagina
METAR-TAF:

METAR-TAF

Vliegvelden :

Vliegbasis Gilze-Rijen

Gilze-Rijen, Nederland

breedte: 51-34N, lengte: 004-56E, hoogte: 15 m

Actueel weer

Dit bericht is 7 minuten geleden gemaakt, om 17:38 UTC
Wind 7 kt uit het zuidzuidwesten, variërend tussen het zuiden en het westzuidwesten
Temperatuur 9°C
Vochtigheid 81%
Druk 1012 hPa
Zicht 10 km of meer
Verspreide wolken op 1900 ft
Gebroken wolken op 5900 ft
Gebroken wolken op 32000 ft

METAR: EHGR 261738Z AUTO 20007KT 170V240 9999 SCT019 BKN059 BKN320 09/06 Q1012 WHT

Tijdstip: 18:45 (17:45 UTC)


TAF: ontbreekt

Waarnemingen en weersverwachtingen van meer dan 4000 vliegvelden (METAR en TAF).

De beschikbare stations zijn de gele en rode punten op de kaart.

Ga met uw muis naar het station om de naam te zien.

Klik dan om waarnemingen en weersverwachtingen te zien.

kaart wijzigen: klik op de groene knoppen met een zwart kruis om in te zoomen, op de groene knop met een streepje om uit te zoomen of op de groene pijlen voor aangrenzende kaarten.


METAR-TAF: